createdAt,value
2023-03-11T00:00:49.810Z,1.60
2023-03-11T00:03:20.268Z,1.60
2023-03-11T00:05:50.220Z,1.60
2023-03-11T00:08:20.075Z,1.60
2023-03-11T00:10:49.908Z,1.60
2023-03-11T00:13:18.888Z,1.60
2023-03-11T00:15:49.579Z,1.50
2023-03-11T00:18:18.516Z,1.50
2023-03-11T00:20:49.409Z,1.50
2023-03-11T00:23:17.634Z,1.50
2023-03-11T00:25:47.341Z,1.50
2023-03-11T00:28:16.750Z,1.50
2023-03-11T00:30:46.986Z,1.40
2023-03-11T00:33:16.922Z,1.40
2023-03-11T00:35:45.594Z,1.40
2023-03-11T00:38:17.612Z,1.30
2023-03-11T00:40:47.341Z,1.30
2023-03-11T00:43:16.214Z,1.30
2023-03-11T00:45:44.627Z,1.30
2023-03-11T00:48:14.462Z,1.20
2023-03-11T00:50:43.125Z,1.20
2023-03-11T00:53:11.687Z,1.30
2023-03-11T00:55:42.490Z,1.40
2023-03-11T00:58:13.677Z,1.40
2023-03-11T01:00:55.192Z,1.40
2023-03-11T01:03:23.572Z,1.40
2023-03-11T01:05:51.638Z,1.40
2023-03-11T01:08:20.124Z,1.40
2023-03-11T01:10:50.097Z,1.50
2023-03-11T01:13:18.258Z,1.40
2023-03-11T01:15:46.950Z,1.50
2023-03-11T01:18:16.620Z,1.40
2023-03-11T01:20:44.959Z,1.50
2023-03-11T01:23:14.154Z,1.40
2023-03-11T01:25:42.514Z,1.40
2023-03-11T01:28:12.575Z,1.50
2023-03-11T01:30:43.331Z,1.40
2023-03-11T01:33:17.107Z,1.50
2023-03-11T01:35:46.228Z,1.40
2023-03-11T01:38:14.896Z,1.40
2023-03-11T01:40:45.442Z,1.40
2023-03-11T01:43:48.025Z,1.50
2023-03-11T01:46:21.045Z,1.40
2023-03-11T01:48:51.950Z,1.50
2023-03-11T01:51:25.414Z,1.50
2023-03-11T01:53:55.056Z,1.50
2023-03-11T01:56:24.422Z,1.50
2023-03-11T01:58:57.086Z,1.50
2023-03-11T02:01:26.124Z,1.50
2023-03-11T02:03:56.213Z,1.50
2023-03-11T02:06:25.671Z,1.60
2023-03-11T02:08:56.364Z,1.60
2023-03-11T02:11:27.901Z,1.60
2023-03-11T02:14:01.745Z,1.50
2023-03-11T02:16:30.501Z,1.40
2023-03-11T02:19:01.622Z,1.40
2023-03-11T02:21:32.642Z,1.30
2023-03-11T02:24:08.746Z,1.20
2023-03-11T02:26:42.843Z,1.10
2023-03-11T02:29:12.923Z,1.10
2023-03-11T02:31:43.601Z,1.10
2023-03-11T02:34:17.218Z,1.10
2023-03-11T02:36:45.731Z,1.10
2023-03-11T02:39:15.805Z,1.20
2023-03-11T02:41:47.097Z,1.20
2023-03-11T02:44:17.440Z,1.30
2023-03-11T02:46:46.525Z,1.30
2023-03-11T02:49:16.561Z,1.30
2023-03-11T02:51:44.695Z,1.30
2023-03-11T02:54:13.405Z,1.30
2023-03-11T02:56:42.126Z,1.40
2023-03-11T02:59:10.400Z,1.30
2023-03-11T03:01:40.319Z,1.30
2023-03-11T03:04:08.973Z,1.30
2023-03-11T03:06:37.169Z,1.20
2023-03-11T03:09:05.597Z,1.10
2023-03-11T03:11:34.189Z,1.00
2023-03-11T03:14:02.415Z,1.00
2023-03-11T03:16:30.938Z,0.90
2023-03-11T03:19:00.817Z,0.90
2023-03-11T03:21:28.960Z,1.00
2023-03-11T03:23:57.685Z,1.00
2023-03-11T03:26:25.817Z,1.00
2023-03-11T03:28:54.026Z,1.00
2023-03-11T03:31:22.484Z,1.10
2023-03-11T03:33:50.906Z,1.10
2023-03-11T03:36:20.824Z,1.10
2023-03-11T03:38:56.284Z,1.20
2023-03-11T03:41:25.975Z,1.20
2023-03-11T03:43:54.780Z,1.20
2023-03-11T03:46:23.965Z,1.30
2023-03-11T03:48:54.853Z,1.20
2023-03-11T03:51:24.613Z,1.30
2023-03-11T03:54:07.291Z,1.30
2023-03-11T03:56:37.024Z,1.30
2023-03-11T03:59:05.918Z,1.40
2023-03-11T04:01:40.538Z,1.40
2023-03-11T04:04:08.891Z,1.40
2023-03-11T04:06:38.952Z,1.50
2023-03-11T04:09:08.663Z,1.50
2023-03-11T04:11:36.965Z,1.50
2023-03-11T04:14:06.943Z,1.50
2023-03-11T04:16:40.368Z,1.60
2023-03-11T04:19:12.848Z,1.60
2023-03-11T04:21:42.864Z,1.60
2023-03-11T04:24:11.844Z,1.50
2023-03-11T04:26:40.891Z,1.40
2023-03-11T04:29:13.373Z,1.40
2023-03-11T04:31:45.324Z,1.40
2023-03-11T04:34:13.932Z,1.20
2023-03-11T04:36:43.557Z,1.20
2023-03-11T04:39:13.616Z,1.10
2023-03-11T04:41:44.765Z,1.00
2023-03-11T04:44:17.092Z,1.00
2023-03-11T04:46:46.380Z,1.00
2023-03-11T04:49:14.492Z,1.00
2023-03-11T04:51:44.654Z,0.90
2023-03-11T04:54:15.212Z,0.90
2023-03-11T04:56:43.402Z,0.80
2023-03-11T04:59:11.529Z,0.80
2023-03-11T05:01:41.534Z,0.80
2023-03-11T05:04:11.074Z,0.70
2023-03-11T05:06:39.956Z,0.70
2023-03-11T05:09:09.847Z,0.70
2023-03-11T05:11:40.914Z,0.70
2023-03-11T05:14:09.200Z,0.70
2023-03-11T05:16:37.742Z,0.70
2023-03-11T05:19:26.772Z,0.70
2023-03-11T05:21:55.993Z,0.80
2023-03-11T05:24:28.296Z,0.80
2023-03-11T05:26:57.847Z,0.80
2023-03-11T05:29:27.525Z,0.70
2023-03-11T05:31:56.007Z,0.70
2023-03-11T05:34:24.780Z,0.70
2023-03-11T05:36:53.007Z,0.60
2023-03-11T05:39:21.688Z,0.60
2023-03-11T05:41:51.472Z,0.60
2023-03-11T05:44:19.833Z,0.50
2023-03-11T05:46:48.218Z,0.40
2023-03-11T05:49:17.083Z,0.40
2023-03-11T05:51:45.863Z,0.30
2023-03-11T05:54:15.218Z,0.30
2023-03-11T05:56:48.450Z,0.20
2023-03-11T05:59:18.890Z,0.20
2023-03-11T06:01:54.817Z,0.10
2023-03-11T06:04:24.967Z,0.10
2023-03-11T06:06:53.626Z,0.10
2023-03-11T06:09:24.299Z,0.20
2023-03-11T06:11:54.248Z,0.20
2023-03-11T06:14:31.716Z,0.20
2023-03-11T06:17:01.974Z,0.20
2023-03-11T06:19:30.341Z,0.20
2023-03-11T06:21:58.768Z,0.30
2023-03-11T06:24:27.221Z,0.40
2023-03-11T06:26:55.596Z,0.50
2023-03-11T06:29:29.342Z,0.50
2023-03-11T06:31:57.703Z,0.60
2023-03-11T06:34:25.925Z,0.70
2023-03-11T06:36:56.121Z,0.90
2023-03-11T06:39:24.251Z,1.10
2023-03-11T06:41:53.757Z,1.10
2023-03-11T06:44:22.044Z,1.20
2023-03-11T06:46:51.533Z,1.20
2023-03-11T06:49:20.094Z,1.20
2023-03-11T06:51:48.626Z,1.40
2023-03-11T06:54:17.495Z,1.80
2023-03-11T06:56:46.239Z,2.20
2023-03-11T06:59:16.100Z,2.40
2023-03-11T07:01:46.029Z,2.60
2023-03-11T07:04:16.561Z,2.50
2023-03-11T07:06:45.100Z,2.50
2023-03-11T07:09:22.311Z,2.40
2023-03-11T07:11:50.769Z,2.40
2023-03-11T07:14:25.912Z,2.40
2023-03-11T07:16:57.568Z,2.50
2023-03-11T07:19:35.545Z,2.70
2023-03-11T07:22:03.941Z,2.90
2023-03-11T07:24:32.022Z,3.20
2023-03-11T07:27:00.216Z,3.60
2023-03-11T07:29:28.539Z,4.50
2023-03-11T07:31:56.679Z,6.00
2023-03-11T07:34:24.963Z,8.10
2023-03-11T07:36:54.777Z,10.20
2023-03-11T07:39:23.189Z,12.00
2023-03-11T07:41:51.479Z,11.80
2023-03-11T07:44:20.445Z,11.00
2023-03-11T07:46:48.606Z,9.80
2023-03-11T07:49:16.905Z,8.90
2023-03-11T07:51:45.149Z,9.40
2023-03-11T07:54:14.963Z,10.90
2023-03-11T07:56:43.102Z,12.20
2023-03-11T07:59:11.585Z,13.20
2023-03-11T08:01:41.200Z,13.40
2023-03-11T08:04:14.507Z,13.40
2023-03-11T08:06:44.268Z,13.80
2023-03-11T08:09:14.651Z,14.50
2023-03-11T08:11:43.203Z,15.00
2023-03-11T08:14:11.582Z,14.60
2023-03-11T08:16:41.498Z,14.20
2023-03-11T08:19:12.820Z,13.50
2023-03-11T08:21:41.777Z,12.80
2023-03-11T08:24:13.181Z,12.50
2023-03-11T08:26:43.316Z,12.30
2023-03-11T08:29:11.672Z,12.40
2023-03-11T08:31:39.769Z,12.40
2023-03-11T08:34:10.477Z,12.60
2023-03-11T08:36:38.713Z,13.00
2023-03-11T08:39:06.975Z,14.00
2023-03-11T08:41:35.251Z,15.30
2023-03-11T08:44:04.854Z,16.60
2023-03-11T08:46:35.598Z,17.70
2023-03-11T08:49:05.086Z,18.60
2023-03-11T08:51:35.121Z,19.80
2023-03-11T08:54:04.435Z,21.10
2023-03-11T08:56:32.602Z,22.30
2023-03-11T08:59:00.671Z,23.70
2023-03-11T09:01:30.622Z,24.90
2023-03-11T09:03:58.713Z,25.80
2023-03-11T09:06:27.075Z,26.40
2023-03-11T09:08:55.309Z,26.70
2023-03-11T09:11:23.865Z,26.70
2023-03-11T09:13:52.430Z,27.00
2023-03-11T09:16:22.152Z,27.60
2023-03-11T09:18:51.910Z,28.40
2023-03-11T09:21:20.511Z,29.00
2023-03-11T09:23:49.280Z,29.70
2023-03-11T09:26:17.422Z,30.10
2023-03-11T09:28:48.916Z,30.70
2023-03-11T09:31:17.938Z,31.60
2023-03-11T09:33:47.194Z,31.90
2023-03-11T09:36:18.778Z,32.30
2023-03-11T09:38:47.298Z,32.70
2023-03-11T09:41:28.521Z,33.10
2023-03-11T09:44:06.263Z,33.20
2023-03-11T09:47:10.281Z,33.50
2023-03-11T09:49:51.418Z,34.10
2023-03-11T09:52:28.579Z,34.70
2023-03-11T09:54:57.401Z,35.10
2023-03-11T09:57:29.289Z,35.30
2023-03-11T09:59:57.485Z,35.50
2023-03-11T10:02:27.776Z,35.60
2023-03-11T10:05:00.198Z,35.80
2023-03-11T10:07:36.204Z,36.20
2023-03-11T10:10:05.971Z,36.20
2023-03-11T10:12:45.683Z,36.50
2023-03-11T10:15:22.070Z,36.90
2023-03-11T10:18:25.019Z,37.30
2023-03-11T10:20:59.736Z,37.50
2023-03-11T10:23:43.253Z,37.80
2023-03-11T10:26:15.054Z,37.90
2023-03-11T10:28:47.920Z,38.00
2023-03-11T10:31:23.359Z,38.10
2023-03-11T10:33:56.643Z,37.70
2023-03-11T10:36:27.237Z,37.60
2023-03-11T10:38:57.403Z,37.40
2023-03-11T10:41:31.052Z,37.60
2023-03-11T10:44:05.023Z,37.60
2023-03-11T10:46:33.944Z,37.70
2023-03-11T10:49:01.973Z,37.80
2023-03-11T10:51:35.521Z,37.80
2023-03-11T10:54:05.484Z,38.10
2023-03-11T10:56:36.624Z,38.10
2023-03-11T10:59:07.939Z,38.40
2023-03-11T11:01:36.311Z,38.50
2023-03-11T11:04:04.884Z,38.20
2023-03-11T11:06:34.843Z,37.90
2023-03-11T11:09:17.980Z,37.60
2023-03-11T11:12:03.269Z,37.80
2023-03-11T11:14:45.783Z,37.70
2023-03-11T11:17:23.825Z,37.60
2023-03-11T11:19:56.971Z,37.70
2023-03-11T11:22:26.380Z,37.70
2023-03-11T11:24:57.307Z,37.80
2023-03-11T11:27:26.917Z,37.60
2023-03-11T11:30:15.827Z,37.90
2023-03-11T11:32:44.027Z,38.10
2023-03-11T11:35:14.557Z,38.50
2023-03-11T11:37:46.951Z,38.80
2023-03-11T11:40:31.543Z,38.80
2023-03-11T11:43:05.062Z,38.90
2023-03-11T11:45:38.883Z,39.00
2023-03-11T11:48:15.688Z,39.40
2023-03-11T11:50:47.311Z,39.60
2023-03-11T11:53:25.838Z,39.60
2023-03-11T11:55:55.715Z,39.60
2023-03-11T11:58:23.982Z,39.60
2023-03-11T12:01:08.311Z,39.80
2023-03-11T12:04:08.699Z,40.20
2023-03-11T12:06:43.451Z,39.90
2023-03-11T12:09:24.161Z,39.40
2023-03-11T12:12:02.334Z,39.00
2023-03-11T12:14:36.833Z,38.70
2023-03-11T12:17:06.137Z,38.50
2023-03-11T12:19:44.173Z,38.40
2023-03-11T12:22:29.794Z,38.40
2023-03-11T12:25:22.063Z,38.00
2023-03-11T12:27:56.104Z,37.70
2023-03-11T12:30:28.333Z,37.60
2023-03-11T12:33:00.314Z,37.60
2023-03-11T12:35:30.493Z,37.50
2023-03-11T12:38:08.396Z,36.90
2023-03-11T12:41:03.539Z,36.80
2023-03-11T12:44:02.595Z,36.80
2023-03-11T12:47:02.575Z,36.70
2023-03-11T12:49:32.416Z,36.30
2023-03-11T12:52:18.132Z,36.20
2023-03-11T12:54:47.613Z,36.00
2023-03-11T12:57:32.911Z,35.50
2023-03-11T13:00:23.906Z,35.00
2023-03-11T13:03:15.806Z,33.70
2023-03-11T13:09:15.640Z,29.40
2023-03-11T13:11:46.375Z,27.60
2023-03-11T13:14:35.364Z,27.40
2023-03-11T13:17:27.590Z,27.50
2023-03-11T13:19:57.096Z,27.90
2023-03-11T13:23:08.283Z,28.40
2023-03-11T13:25:41.942Z,28.60
2023-03-11T13:28:47.291Z,28.30
2023-03-11T13:31:30.671Z,27.80
2023-03-11T13:34:12.387Z,26.40
2023-03-11T13:36:50.605Z,25.10
2023-03-11T13:39:34.184Z,23.60
2023-03-11T13:42:04.659Z,22.10
2023-03-11T13:44:36.514Z,21.10
2023-03-11T13:47:10.321Z,20.50
2023-03-11T13:49:45.632Z,20.00
2023-03-11T13:52:17.756Z,19.50
2023-03-11T13:54:49.222Z,18.90
2023-03-11T13:57:26.745Z,18.30
2023-03-11T13:59:56.267Z,17.70
2023-03-11T14:02:26.691Z,17.10
2023-03-11T14:04:59.994Z,16.50
2023-03-11T14:07:31.743Z,15.90
2023-03-11T14:10:20.395Z,15.10
2023-03-11T14:12:49.158Z,14.40
2023-03-11T14:15:21.573Z,14.10
2023-03-11T14:17:51.291Z,13.90
2023-03-11T14:20:25.220Z,13.50
2023-03-11T14:22:55.122Z,13.00
2023-03-11T14:25:26.437Z,12.80
2023-03-11T14:27:57.286Z,12.30
2023-03-11T14:30:28.109Z,11.90
2023-03-11T14:33:02.386Z,11.50
2023-03-11T14:35:33.801Z,11.10
2023-03-11T14:38:02.403Z,10.80
2023-03-11T14:40:32.849Z,10.50
2023-03-11T14:43:04.922Z,10.20
2023-03-11T14:45:36.494Z,9.80
2023-03-11T14:48:10.397Z,9.50
2023-03-11T14:50:39.887Z,9.30
2023-03-11T14:53:14.901Z,9.10
2023-03-11T14:55:50.800Z,8.90
2023-03-11T14:58:29.156Z,8.70
2023-03-11T15:01:01.504Z,8.60
2023-03-11T15:03:32.289Z,8.40
2023-03-11T15:06:06.191Z,8.30
2023-03-11T15:08:38.656Z,8.30
2023-03-11T15:11:18.820Z,8.20
2023-03-11T15:13:50.890Z,8.20
2023-03-11T15:16:33.741Z,8.10
2023-03-11T15:19:03.258Z,8.10
2023-03-11T15:21:32.653Z,8.00
2023-03-11T15:24:05.301Z,7.90
2023-03-11T15:26:35.471Z,7.80
2023-03-11T15:29:07.067Z,7.70
2023-03-11T15:31:37.443Z,7.60
2023-03-11T15:34:25.081Z,7.40
2023-03-11T15:37:04.726Z,7.30
2023-03-11T15:39:45.303Z,7.10
2023-03-11T15:42:21.713Z,7.00
2023-03-11T15:45:02.296Z,6.80
2023-03-11T15:47:30.891Z,6.80
2023-03-11T15:49:58.993Z,6.80
2023-03-11T15:52:28.637Z,6.80
2023-03-11T15:54:56.850Z,6.90
2023-03-11T15:57:28.287Z,6.80
2023-03-11T15:59:58.212Z,6.80
2023-03-11T16:02:28.359Z,6.70
2023-03-11T16:04:57.520Z,6.70
2023-03-11T16:07:39.221Z,6.80
2023-03-11T16:10:11.442Z,6.70
2023-03-11T16:12:40.004Z,6.60
2023-03-11T16:15:15.567Z,6.50
2023-03-11T16:17:49.728Z,6.30
2023-03-11T16:20:18.771Z,6.20
2023-03-11T16:22:47.454Z,6.20
2023-03-11T16:25:22.845Z,6.20
2023-03-11T16:27:52.492Z,6.20
2023-03-11T16:30:21.323Z,6.20
2023-03-11T16:32:49.569Z,6.20
2023-03-11T16:35:19.255Z,6.10
2023-03-11T16:37:47.602Z,6.10
2023-03-11T16:40:19.267Z,6.10
2023-03-11T16:42:48.121Z,6.00
2023-03-11T16:45:17.715Z,6.00
2023-03-11T16:47:46.664Z,6.00
2023-03-11T16:50:15.022Z,6.00
2023-03-11T16:52:43.041Z,6.00
2023-03-11T16:55:11.514Z,6.00
2023-03-11T16:57:41.348Z,5.90
2023-03-11T17:00:11.004Z,5.90
2023-03-11T17:02:39.586Z,5.90
2023-03-11T17:05:09.277Z,5.80
2023-03-11T17:07:39.695Z,5.80
2023-03-11T17:10:09.670Z,5.80
2023-03-11T17:12:38.135Z,5.70
2023-03-11T17:15:08.845Z,5.60
2023-03-11T17:17:37.290Z,5.60
2023-03-11T17:20:07.017Z,5.50
2023-03-11T17:22:35.147Z,5.40
2023-03-11T17:25:03.171Z,5.20
2023-03-11T17:27:32.706Z,5.20
2023-03-11T17:30:01.018Z,5.10
2023-03-11T17:32:30.595Z,5.10
2023-03-11T17:34:59.086Z,5.10
2023-03-11T17:37:27.176Z,5.10
2023-03-11T17:39:55.260Z,5.10
2023-03-11T17:42:23.704Z,5.10
2023-03-11T17:44:52.365Z,5.10
2023-03-11T17:47:21.272Z,5.10
2023-03-11T17:49:51.399Z,5.10
2023-03-11T17:52:19.578Z,5.10
2023-03-11T17:54:47.698Z,5.20
2023-03-11T17:57:16.068Z,5.20
2023-03-11T17:59:44.121Z,5.30
2023-03-11T18:02:14.906Z,5.20
2023-03-11T18:04:45.997Z,5.20
2023-03-11T18:07:15.471Z,5.10
2023-03-11T18:09:46.489Z,5.00
2023-03-11T18:12:14.924Z,5.00
2023-03-11T18:14:42.971Z,4.90
2023-03-11T18:17:11.294Z,4.90
2023-03-11T18:19:39.569Z,4.90
2023-03-11T18:22:07.610Z,4.80
2023-03-11T18:24:37.305Z,4.70
2023-03-11T18:27:06.002Z,4.50
2023-03-11T18:29:34.120Z,4.50
2023-03-11T18:32:02.466Z,4.40
2023-03-11T18:34:31.608Z,4.30
2023-03-11T18:37:02.683Z,4.20
2023-03-11T18:39:30.773Z,4.20
2023-03-11T18:42:00.724Z,4.10
2023-03-11T18:44:28.837Z,4.00
2023-03-11T18:46:56.919Z,4.00
2023-03-11T18:49:25.033Z,3.90
2023-03-11T18:51:53.061Z,3.80
2023-03-11T18:54:21.229Z,3.70
2023-03-11T18:56:49.906Z,3.60
2023-03-11T18:59:19.253Z,3.40
2023-03-11T19:01:47.298Z,3.30
2023-03-11T19:04:15.664Z,3.20
2023-03-11T19:06:43.711Z,3.20
2023-03-11T19:09:11.886Z,3.10
2023-03-11T19:11:40.073Z,3.10
2023-03-11T19:14:08.167Z,3.00
2023-03-11T19:16:37.763Z,2.90
2023-03-11T19:19:05.895Z,2.70
2023-03-11T19:21:33.970Z,2.60
2023-03-11T19:24:02.433Z,2.60
2023-03-11T19:26:44.276Z,2.50
2023-03-11T19:29:14.067Z,2.40
2023-03-11T19:31:45.350Z,2.30
2023-03-11T19:34:13.509Z,2.30
2023-03-11T19:36:41.722Z,2.20
2023-03-11T19:39:10.262Z,2.20
2023-03-11T19:41:38.335Z,2.10
2023-03-11T19:44:06.481Z,2.10
2023-03-11T19:46:36.373Z,2.00
2023-03-11T19:49:06.440Z,2.00
2023-03-11T19:51:48.521Z,1.90
2023-03-11T19:54:17.592Z,1.90
2023-03-11T19:56:45.877Z,1.80
2023-03-11T19:59:14.004Z,1.80
2023-03-11T20:01:43.301Z,1.70
2023-03-11T20:04:14.973Z,1.70
2023-03-11T20:06:46.309Z,1.60
2023-03-11T20:09:16.090Z,1.60
2023-03-11T20:11:45.580Z,1.50
2023-03-11T20:14:14.191Z,1.50
2023-03-11T20:16:42.587Z,1.40
2023-03-11T20:19:12.042Z,1.40
2023-03-11T20:21:41.057Z,1.40
2023-03-11T20:24:10.175Z,1.30
2023-03-11T20:26:39.272Z,1.20
2023-03-11T20:29:08.028Z,1.20
2023-03-11T20:31:37.331Z,1.10
2023-03-11T20:34:05.941Z,1.10
2023-03-11T20:36:35.893Z,1.10
2023-03-11T20:39:07.894Z,1.10
2023-03-11T20:41:40.260Z,1.10
2023-03-11T20:44:10.018Z,1.10
2023-03-11T20:46:38.078Z,1.10
2023-03-11T20:49:06.399Z,1.10
2023-03-11T20:51:35.913Z,1.10
2023-03-11T20:54:04.227Z,1.10
2023-03-11T20:56:32.396Z,1.10
2023-03-11T20:59:01.003Z,1.00
2023-03-11T21:01:31.899Z,1.00
2023-03-11T21:04:01.772Z,1.00
2023-03-11T21:06:32.693Z,1.00
2023-03-11T21:09:05.633Z,1.00
2023-03-11T21:11:34.266Z,1.00
2023-03-11T21:14:02.424Z,1.00
2023-03-11T21:16:31.064Z,1.00
2023-03-11T21:19:01.279Z,1.00
2023-03-11T21:21:29.723Z,1.00
2023-03-11T21:23:58.093Z,1.00
2023-03-11T21:26:27.784Z,0.90
2023-03-11T21:28:56.079Z,1.00
2023-03-11T21:31:29.271Z,1.00
2023-03-11T21:33:59.593Z,1.00
2023-03-11T21:36:28.494Z,1.00
2023-03-11T21:38:56.905Z,1.00
2023-03-11T21:41:27.896Z,1.00
2023-03-11T21:43:58.228Z,1.00
2023-03-11T21:46:29.219Z,1.00
2023-03-11T21:48:58.477Z,1.00
2023-03-11T21:51:27.499Z,1.00
2023-03-11T21:53:56.364Z,1.00
2023-03-11T21:56:24.799Z,1.00
2023-03-11T21:58:54.422Z,1.00
2023-03-11T22:01:23.098Z,1.00
2023-03-11T22:03:51.845Z,0.90
2023-03-11T22:06:20.439Z,1.00
2023-03-11T22:08:48.853Z,0.90
2023-03-11T22:11:19.318Z,1.00
2023-03-11T22:13:49.333Z,0.90
2023-03-11T22:16:22.675Z,0.90
2023-03-11T22:18:51.792Z,1.00
2023-03-11T22:21:21.515Z,1.00
2023-03-11T22:23:50.372Z,1.00
2023-03-11T22:26:18.593Z,1.00
2023-03-11T22:28:46.685Z,1.00
2023-03-11T22:31:17.296Z,1.00
2023-03-11T22:33:47.163Z,1.00
2023-03-11T22:36:15.330Z,1.00
2023-03-11T22:38:44.493Z,0.90
2023-03-11T22:41:13.783Z,0.90
2023-03-11T22:43:41.918Z,0.90
2023-03-11T22:46:10.265Z,0.90
2023-03-11T22:48:38.409Z,0.90
2023-03-11T22:51:07.977Z,0.80
2023-03-11T22:53:36.285Z,0.70
2023-03-11T22:56:09.449Z,0.80
2023-03-11T22:58:37.819Z,0.80
2023-03-11T23:01:08.079Z,0.80
2023-03-11T23:03:37.205Z,0.80
2023-03-11T23:06:09.726Z,0.80
2023-03-11T23:08:38.266Z,0.80
2023-03-11T23:11:08.609Z,0.80
2023-03-11T23:13:37.326Z,0.80
2023-03-11T23:16:07.633Z,0.80
2023-03-11T23:18:36.241Z,0.90
2023-03-11T23:21:04.600Z,0.90
2023-03-11T23:23:34.363Z,1.00
2023-03-11T23:26:07.684Z,0.90
2023-03-11T23:28:35.813Z,0.90
2023-03-11T23:31:04.890Z,0.90
2023-03-11T23:33:33.135Z,0.80
2023-03-11T23:36:01.864Z,0.80
2023-03-11T23:38:30.352Z,0.70
2023-03-11T23:40:59.951Z,0.70
2023-03-11T23:43:28.232Z,0.60
2023-03-11T23:45:56.318Z,0.60
2023-03-11T23:48:24.587Z,0.60
2023-03-11T23:50:52.920Z,0.50
2023-03-11T23:53:23.218Z,0.50
2023-03-11T23:55:51.754Z,0.50
2023-03-11T23:58:22.094Z,0.40
